createdAt,value
2022-11-20T00:04:45.691Z,13.60
2022-11-20T00:09:47.186Z,15.60
2022-11-20T00:14:48.689Z,17.65
2022-11-20T00:19:50.130Z,16.40
2022-11-20T00:24:51.525Z,16.55
2022-11-20T00:29:52.929Z,15.38
2022-11-20T00:34:54.356Z,16.02
2022-11-20T00:39:55.854Z,17.73
2022-11-20T00:44:57.306Z,15.95
2022-11-20T00:50:17.688Z,16.65
2022-11-20T00:55:19.213Z,17.17
2022-11-20T01:00:20.764Z,16.27
2022-11-20T01:05:22.172Z,17.25
2022-11-20T01:10:23.578Z,17.33
2022-11-20T01:15:24.969Z,15.32
2022-11-20T01:20:26.380Z,18.33
2022-11-20T01:25:27.806Z,18.30
2022-11-20T01:30:29.418Z,16.27
2022-11-20T01:35:30.909Z,16.73
2022-11-20T01:40:32.306Z,17.45
2022-11-20T01:45:50.250Z,15.45
2022-11-20T01:50:52.823Z,16.73
2022-11-20T01:55:55.258Z,16.98
2022-11-20T02:00:56.866Z,19.83
2022-11-20T02:06:16.824Z,15.73
2022-11-20T02:11:18.377Z,17.88
2022-11-20T02:16:29.097Z,16.45
2022-11-20T02:21:30.546Z,17.85
2022-11-20T02:26:33.546Z,17.55
2022-11-20T02:31:36.533Z,18.58
2022-11-20T02:36:38.969Z,16.85
2022-11-20T02:41:40.450Z,17.33
2022-11-20T02:46:41.903Z,17.55
2022-11-20T02:51:43.379Z,18.15
2022-11-20T02:56:44.927Z,17.38
2022-11-20T03:01:46.342Z,16.42
2022-11-20T03:06:47.858Z,17.63
2022-11-20T03:11:49.216Z,16.80
2022-11-20T03:16:50.635Z,16.95
2022-11-20T03:21:52.025Z,20.02
2022-11-20T03:26:53.510Z,17.80
2022-11-20T03:31:56.125Z,18.40
2022-11-20T03:36:57.546Z,18.05
2022-11-20T03:41:58.923Z,16.60
2022-11-20T03:47:00.349Z,18.58
2022-11-20T03:52:01.745Z,18.20
2022-11-20T03:57:03.250Z,16.70
2022-11-20T04:02:04.732Z,15.55
2022-11-20T04:07:06.327Z,18.83
2022-11-20T04:12:07.749Z,17.60
2022-11-20T04:17:09.243Z,18.75
2022-11-20T04:22:12.663Z,18.00
2022-11-20T04:27:14.094Z,19.45
2022-11-20T04:32:15.475Z,19.80
2022-11-20T04:37:16.917Z,22.27
2022-11-20T04:42:30.285Z,17.52
2022-11-20T04:47:31.706Z,19.50
2022-11-20T04:52:33.574Z,19.77
2022-11-20T04:57:34.995Z,18.40
2022-11-20T05:02:36.581Z,17.98
2022-11-20T05:07:38.046Z,18.25
2022-11-20T05:12:39.605Z,19.77
2022-11-20T05:17:41.490Z,17.10
2022-11-20T05:22:43.549Z,17.83
2022-11-20T05:27:44.973Z,17.33
2022-11-20T05:32:46.387Z,16.85
2022-11-20T05:37:47.846Z,18.55
2022-11-20T05:42:49.245Z,17.40
2022-11-20T05:47:50.686Z,15.02
2022-11-20T05:52:52.102Z,18.80
2022-11-20T05:57:54.711Z,17.45
2022-11-20T06:02:56.182Z,18.10
2022-11-20T06:07:57.596Z,17.63
2022-11-20T06:12:59.251Z,18.30
2022-11-20T06:18:00.672Z,19.13
2022-11-20T06:23:02.300Z,19.05
2022-11-20T06:28:03.753Z,16.83
2022-11-20T06:33:05.154Z,19.05
2022-11-20T06:38:06.652Z,18.95
2022-11-20T06:43:08.476Z,18.05
2022-11-20T06:48:10.721Z,19.63
2022-11-20T06:53:12.114Z,19.38
2022-11-20T06:58:14.618Z,17.45
2022-11-20T07:03:17.311Z,18.55
2022-11-20T07:08:20.107Z,18.20
2022-11-20T07:13:21.535Z,18.98
2022-11-20T07:18:23.003Z,17.77
2022-11-20T07:23:24.531Z,19.00
2022-11-20T07:28:26.003Z,18.10
2022-11-20T07:33:27.576Z,21.10
2022-11-20T07:38:29.425Z,19.60
2022-11-20T07:43:30.856Z,21.20
2022-11-20T07:48:32.344Z,22.50
2022-11-20T07:53:33.813Z,21.52
2022-11-20T07:58:35.557Z,23.45
2022-11-20T08:03:38.717Z,20.55
2022-11-20T08:08:42.958Z,19.85
2022-11-20T08:14:03.623Z,21.13
2022-11-20T08:19:05.144Z,22.85
2022-11-20T08:24:06.858Z,19.95
2022-11-20T08:29:08.407Z,23.48
2022-11-20T08:34:11.338Z,20.58
2022-11-20T08:39:14.996Z,24.15
2022-11-20T08:44:16.373Z,23.58
2022-11-20T08:49:18.744Z,20.92
2022-11-20T08:54:22.902Z,22.63
2022-11-20T08:59:43.749Z,20.67
2022-11-20T09:04:45.956Z,21.13
2022-11-20T09:10:03.699Z,23.08
2022-11-20T09:15:09.354Z,25.33
2022-11-20T09:20:10.869Z,24.80
2022-11-20T09:25:12.331Z,23.58
2022-11-20T09:30:14.359Z,20.73
2022-11-20T09:35:15.862Z,20.08
2022-11-20T09:40:21.573Z,23.23
2022-11-20T09:45:46.325Z,22.13
2022-11-20T09:50:56.979Z,23.45
2022-11-20T09:56:00.603Z,24.58
2022-11-20T10:01:10.708Z,23.63
2022-11-20T10:06:14.722Z,24.90
2022-11-20T10:11:22.716Z,22.80
2022-11-20T10:16:24.197Z,23.63
2022-11-20T10:21:28.147Z,21.70
2022-11-20T10:26:29.631Z,21.70
2022-11-20T10:31:33.888Z,21.75
2022-11-20T10:36:37.355Z,21.23
2022-11-20T10:41:41.568Z,24.83
2022-11-20T10:46:47.062Z,22.58
2022-11-20T10:51:48.469Z,23.63
2022-11-20T10:56:53.665Z,23.48
2022-11-20T11:01:55.138Z,22.45
2022-11-20T11:07:00.223Z,25.70
2022-11-20T11:12:06.825Z,30.35
2022-11-20T11:17:19.126Z,27.42
2022-11-20T11:22:20.602Z,25.55
2022-11-20T11:27:22.099Z,23.13
2022-11-20T11:32:23.994Z,28.17
2022-11-20T11:37:28.050Z,28.80
2022-11-20T11:42:30.449Z,26.77
2022-11-20T11:47:38.133Z,28.70
2022-11-20T11:52:48.610Z,26.85
2022-11-20T11:57:55.668Z,27.02
2022-11-20T12:03:14.091Z,27.27
2022-11-20T12:08:24.597Z,27.75
2022-11-20T12:13:31.902Z,29.00
2022-11-20T12:18:33.896Z,27.15
2022-11-20T12:23:48.693Z,30.77
2022-11-20T12:28:51.883Z,26.42
2022-11-20T12:33:58.480Z,35.58
2022-11-20T12:39:14.345Z,38.30
2022-11-20T12:44:53.211Z,39.30
2022-11-20T12:50:01.520Z,44.90
2022-11-20T12:55:15.268Z,46.15
2022-11-20T13:00:19.723Z,48.53
2022-11-20T13:05:40.080Z,45.47
2022-11-20T13:10:47.116Z,43.95
2022-11-20T13:15:55.550Z,39.55
2022-11-20T13:20:56.995Z,44.65
2022-11-20T13:26:16.424Z,46.40
2022-11-20T13:31:32.420Z,45.00
2022-11-20T13:36:35.943Z,49.65
2022-11-20T13:41:40.474Z,49.35
2022-11-20T13:46:46.092Z,44.50
2022-11-20T13:51:48.196Z,44.35
2022-11-20T13:57:03.206Z,41.03
2022-11-20T14:02:10.474Z,34.38
2022-11-20T14:07:12.546Z,36.05
2022-11-20T14:12:16.990Z,33.10
2022-11-20T14:17:20.235Z,35.22
2022-11-20T14:22:25.488Z,34.42
2022-11-20T14:27:27.110Z,34.75
2022-11-20T14:32:30.322Z,33.47
2022-11-20T14:37:34.286Z,30.38
2022-11-20T14:42:35.865Z,35.95
2022-11-20T14:47:37.326Z,34.10
2022-11-20T14:52:38.806Z,32.20
2022-11-20T14:57:40.340Z,32.65
2022-11-20T15:02:49.159Z,33.75
2022-11-20T15:07:53.028Z,32.42
2022-11-20T15:12:55.721Z,30.60
2022-11-20T15:17:58.793Z,32.55
2022-11-20T15:23:00.483Z,30.50
2022-11-20T15:28:01.879Z,33.97
2022-11-20T15:33:03.322Z,34.30
2022-11-20T15:38:04.807Z,33.63
2022-11-20T15:43:13.243Z,30.83
2022-11-20T15:48:22.884Z,31.83
2022-11-20T15:53:24.474Z,32.90
2022-11-20T15:58:25.985Z,31.77
2022-11-20T16:03:27.387Z,33.42
2022-11-20T16:08:29.077Z,30.77
2022-11-20T16:13:50.871Z,35.05
2022-11-20T16:18:52.457Z,36.60
2022-11-20T16:23:53.849Z,31.58
2022-11-20T16:28:55.793Z,36.28
2022-11-20T16:33:58.302Z,34.53
2022-11-20T16:39:01.257Z,31.98
2022-11-20T16:44:03.547Z,35.40
2022-11-20T16:49:06.477Z,35.15
2022-11-20T16:54:08.681Z,31.17
2022-11-20T16:59:10.814Z,33.90
2022-11-20T17:04:12.436Z,34.10
2022-11-20T17:09:14.107Z,36.83
2022-11-20T17:14:15.974Z,37.88
2022-11-20T17:19:17.423Z,34.75
2022-11-20T17:24:18.965Z,37.50
2022-11-20T17:29:24.410Z,37.90
2022-11-20T17:34:26.200Z,36.53
2022-11-20T17:39:27.889Z,35.65
2022-11-20T17:44:29.325Z,37.40
2022-11-20T17:54:57.760Z,35.13
2022-11-20T17:59:59.249Z,34.20
2022-11-20T18:05:00.825Z,36.25
2022-11-20T18:10:02.288Z,41.35
2022-11-20T18:15:03.858Z,38.75
2022-11-20T18:20:27.971Z,38.55
2022-11-20T18:25:27.201Z,35.55
2022-11-20T18:30:28.602Z,33.42
2022-11-20T18:35:31.252Z,36.38
2022-11-20T18:40:34.520Z,36.80
2022-11-20T18:45:35.974Z,35.53
2022-11-20T18:50:37.343Z,34.75
2022-11-20T18:55:38.789Z,37.90
2022-11-20T19:00:40.402Z,39.35
2022-11-20T19:05:42.101Z,38.38
2022-11-20T19:10:43.518Z,32.58
2022-11-20T19:15:44.923Z,35.53
2022-11-20T19:20:46.638Z,34.83
2022-11-20T19:25:48.686Z,29.48
2022-11-20T19:30:50.220Z,32.40
2022-11-20T19:35:51.760Z,29.10
2022-11-20T19:40:53.202Z,27.23
2022-11-20T19:45:54.883Z,29.80
2022-11-20T19:50:56.381Z,27.58
2022-11-20T19:55:58.375Z,29.33
2022-11-20T20:01:12.972Z,23.17
2022-11-20T20:06:18.889Z,19.77
2022-11-20T20:11:23.974Z,22.23
2022-11-20T20:16:26.522Z,19.65
2022-11-20T20:21:28.522Z,19.48
2022-11-20T20:26:30.593Z,20.35
2022-11-20T20:31:33.516Z,17.67
2022-11-20T20:36:35.127Z,19.05
2022-11-20T20:41:36.669Z,19.50
2022-11-20T20:46:38.403Z,22.08
2022-11-20T20:51:39.864Z,21.73
2022-11-20T20:56:41.463Z,20.27
2022-11-20T21:01:43.298Z,23.00
2022-11-20T21:06:44.767Z,21.85
2022-11-20T21:11:46.250Z,22.00
2022-11-20T21:16:47.827Z,17.52
2022-11-20T21:22:03.496Z,21.77
2022-11-20T21:27:05.700Z,16.48
2022-11-20T21:32:08.118Z,19.38
2022-11-20T21:37:09.686Z,17.58
2022-11-20T21:42:11.306Z,15.68
2022-11-20T21:47:13.017Z,15.70
2022-11-20T21:52:14.465Z,16.30
2022-11-20T21:57:15.920Z,18.27
2022-11-20T22:02:17.550Z,17.35
2022-11-20T22:07:19.083Z,17.30
2022-11-20T22:12:20.998Z,17.48
2022-11-20T22:17:42.383Z,17.33
2022-11-20T22:22:43.809Z,18.83
2022-11-20T22:27:46.022Z,19.05
2022-11-20T22:32:47.538Z,14.77
2022-11-20T22:37:49.218Z,14.90
2022-11-20T22:42:50.637Z,14.82
2022-11-20T22:47:52.014Z,14.15
2022-11-20T22:52:53.438Z,15.40
2022-11-20T22:57:54.820Z,16.80
2022-11-20T23:02:56.307Z,24.35
2022-11-20T23:07:57.717Z,20.88
2022-11-20T23:13:00.471Z,22.67
2022-11-20T23:18:02.009Z,21.90
2022-11-20T23:23:03.562Z,21.15
2022-11-20T23:28:05.159Z,21.88
2022-11-20T23:33:06.831Z,22.00
2022-11-20T23:38:08.433Z,24.75
2022-11-20T23:43:16.318Z,23.48
2022-11-20T23:48:18.353Z,22.02
2022-11-20T23:53:20.032Z,19.45
2022-11-20T23:58:22.159Z,20.00
